createdAt,value
2018-06-01T00:00:06.177Z,19.75
2018-06-01T00:01:11.149Z,19.75
2018-06-01T00:02:05.767Z,19.75
2018-06-01T00:03:05.856Z,19.81
2018-06-01T00:04:05.810Z,19.75
2018-06-01T00:05:05.682Z,19.75
2018-06-01T00:06:06.200Z,19.75
2018-06-01T00:07:06.099Z,19.75
2018-06-01T00:08:06.246Z,19.75
2018-06-01T00:09:06.262Z,19.75
2018-06-01T00:10:06.478Z,19.75
2018-06-01T00:11:05.857Z,19.75
2018-06-01T00:12:05.836Z,19.75
2018-06-01T00:13:06.089Z,19.75
2018-06-01T00:14:05.701Z,19.75
2018-06-01T00:15:05.941Z,19.75
2018-06-01T00:16:06.090Z,19.75
2018-06-01T00:17:10.891Z,19.69
2018-06-01T00:18:10.952Z,19.69
2018-06-01T00:19:06.417Z,19.69
2018-06-01T00:20:05.838Z,19.69
2018-06-01T00:21:06.142Z,19.69
2018-06-01T00:22:05.740Z,19.69
2018-06-01T00:23:06.047Z,19.69
2018-06-01T00:24:06.186Z,19.69
2018-06-01T00:25:06.821Z,19.62
2018-06-01T00:26:06.116Z,19.62
2018-06-01T00:27:06.124Z,19.62
2018-06-01T00:28:05.701Z,19.62
2018-06-01T00:29:06.384Z,19.62
2018-06-01T00:30:07.228Z,19.62
2018-06-01T00:31:06.218Z,19.56
2018-06-01T00:32:06.011Z,19.56
2018-06-01T00:33:05.710Z,19.56
2018-06-01T00:34:06.008Z,19.56
2018-06-01T00:35:06.255Z,19.50
2018-06-01T00:36:06.292Z,19.50
2018-06-01T00:37:06.432Z,19.50
2018-06-01T00:38:06.018Z,19.50
2018-06-01T00:39:05.787Z,19.50
2018-06-01T00:40:05.790Z,19.50
2018-06-01T00:41:06.097Z,19.44
2018-06-01T00:42:06.014Z,19.44
2018-06-01T00:43:10.660Z,19.50
2018-06-01T00:44:07.235Z,19.50
2018-06-01T00:45:06.203Z,19.44
2018-06-01T00:46:06.023Z,19.44
2018-06-01T00:47:05.873Z,19.44
2018-06-01T00:48:06.256Z,19.44
2018-06-01T00:49:06.354Z,19.44
2018-06-01T00:50:06.027Z,19.44
2018-06-01T00:51:05.921Z,19.44
2018-06-01T00:52:05.706Z,19.38
2018-06-01T00:53:05.592Z,19.38
2018-06-01T00:54:05.838Z,19.38
2018-06-01T00:55:05.625Z,19.38
2018-06-01T00:56:05.712Z,19.38
2018-06-01T00:57:06.331Z,19.38
2018-06-01T00:58:06.125Z,19.38
2018-06-01T00:59:05.951Z,19.38
2018-06-01T01:00:05.838Z,19.31
2018-06-01T01:01:06.060Z,19.31
2018-06-01T01:02:05.784Z,19.31
2018-06-01T01:03:06.261Z,19.31
2018-06-01T01:04:06.202Z,19.31
2018-06-01T01:05:11.036Z,19.25
2018-06-01T01:06:05.777Z,19.25
2018-06-01T01:07:06.470Z,19.19
2018-06-01T01:08:06.609Z,19.19
2018-06-01T01:09:07.486Z,19.19
2018-06-01T01:10:06.819Z,19.12
2018-06-01T01:11:06.607Z,19.12
2018-06-01T01:12:06.180Z,19.12
2018-06-01T01:13:06.013Z,19.12
2018-06-01T01:14:05.701Z,19.12
2018-06-01T01:15:05.614Z,19.12
2018-06-01T01:16:06.440Z,19.12
2018-06-01T01:17:06.467Z,19.12
2018-06-01T01:18:06.259Z,19.12
2018-06-01T01:19:05.775Z,19.19
2018-06-01T01:20:06.192Z,19.19
2018-06-01T01:21:06.626Z,19.19
2018-06-01T01:22:06.422Z,19.19
2018-06-01T01:23:05.474Z,19.19
2018-06-01T01:24:06.763Z,19.12
2018-06-01T01:25:06.412Z,19.12
2018-06-01T01:26:06.173Z,19.12
2018-06-01T01:27:05.859Z,19.06
2018-06-01T01:28:05.923Z,19.06
2018-06-01T01:29:06.170Z,19.12
2018-06-01T01:30:06.257Z,19.06
2018-06-01T01:31:06.430Z,19.06
2018-06-01T01:32:05.857Z,19.06
2018-06-01T01:33:11.048Z,19.06
2018-06-01T01:34:05.555Z,19.06
2018-06-01T01:35:06.431Z,19.06
2018-06-01T01:36:06.176Z,19.06
2018-06-01T01:37:06.097Z,19.06
2018-06-01T01:38:06.050Z,19.06
2018-06-01T01:39:10.698Z,19.06
2018-06-01T01:40:06.423Z,19.12
2018-06-01T01:41:06.122Z,19.12
2018-06-01T01:42:06.431Z,19.12
2018-06-01T01:43:07.176Z,19.12
2018-06-01T01:44:06.645Z,19.12
2018-06-01T01:45:06.034Z,19.12
2018-06-01T01:46:05.856Z,19.12
2018-06-01T01:47:06.219Z,19.19
2018-06-01T01:48:06.267Z,19.19
2018-06-01T01:49:06.105Z,19.19
2018-06-01T01:50:06.018Z,19.19
2018-06-01T01:51:06.008Z,19.19
2018-06-01T01:52:05.714Z,19.19
2018-06-01T01:53:06.422Z,19.19
2018-06-01T01:54:06.501Z,19.19
2018-06-01T01:55:05.863Z,19.19
2018-06-01T01:56:06.205Z,19.19
2018-06-01T01:57:05.702Z,19.19
2018-06-01T01:58:05.868Z,19.19
2018-06-01T01:59:05.542Z,19.19
2018-06-01T02:00:05.858Z,19.19
2018-06-01T02:01:05.687Z,19.19
2018-06-01T02:02:05.883Z,19.19
2018-06-01T02:03:06.237Z,19.19
2018-06-01T02:04:05.620Z,19.19
2018-06-01T02:05:05.957Z,19.25
2018-06-01T02:06:06.128Z,19.25
2018-06-01T02:07:06.014Z,19.25
2018-06-01T02:08:06.429Z,19.25
2018-06-01T02:09:06.099Z,19.25
2018-06-01T02:10:05.618Z,19.25
2018-06-01T02:11:05.711Z,19.25
2018-06-01T02:12:05.615Z,19.25
2018-06-01T02:13:05.945Z,19.25
2018-06-01T02:14:05.954Z,19.25
2018-06-01T02:15:06.066Z,19.25
2018-06-01T02:16:06.034Z,19.25
2018-06-01T02:17:05.998Z,19.25
2018-06-01T02:18:05.619Z,19.25
2018-06-01T02:19:06.748Z,19.31
2018-06-01T02:20:06.346Z,19.31
2018-06-01T02:21:06.134Z,19.31
2018-06-01T02:22:06.811Z,19.31
2018-06-01T02:23:05.644Z,19.31
2018-06-01T02:24:06.262Z,19.31
2018-06-01T02:25:06.857Z,19.31
2018-06-01T02:26:05.665Z,19.31
2018-06-01T02:27:06.484Z,19.31
2018-06-01T02:28:06.358Z,19.31
2018-06-01T02:29:06.279Z,19.31
2018-06-01T02:30:06.224Z,19.31
2018-06-01T02:31:05.940Z,19.31
2018-06-01T02:32:11.427Z,19.31
2018-06-01T02:33:06.171Z,19.31
2018-06-01T02:34:06.274Z,19.31
2018-06-01T02:35:06.264Z,19.31
2018-06-01T02:36:06.186Z,19.31
2018-06-01T02:37:06.199Z,19.31
2018-06-01T02:38:05.775Z,19.31
2018-06-01T02:39:06.260Z,19.31
2018-06-01T02:40:05.980Z,19.31
2018-06-01T02:41:06.015Z,19.31
2018-06-01T02:42:06.100Z,19.31
2018-06-01T02:43:05.787Z,19.38
2018-06-01T02:44:05.626Z,19.38
2018-06-01T02:45:06.751Z,19.38
2018-06-01T02:46:05.626Z,19.38
2018-06-01T02:47:06.284Z,19.38
2018-06-01T02:48:06.263Z,19.38
2018-06-01T02:49:06.666Z,19.38
2018-06-01T02:50:05.974Z,19.38
2018-06-01T02:51:05.890Z,19.38
2018-06-01T02:52:05.819Z,19.38
2018-06-01T02:53:10.744Z,19.38
2018-06-01T02:54:06.425Z,19.38
2018-06-01T02:55:06.461Z,19.38
2018-06-01T02:56:06.462Z,19.38
2018-06-01T02:57:06.671Z,19.38
2018-06-01T02:58:05.845Z,19.38
2018-06-01T02:59:06.428Z,19.38
2018-06-01T03:00:11.515Z,19.38
2018-06-01T03:01:06.748Z,19.38
2018-06-01T03:02:06.378Z,19.44
2018-06-01T03:03:06.519Z,19.44
2018-06-01T03:04:06.107Z,19.44
2018-06-01T03:05:05.942Z,19.44
2018-06-01T03:06:06.345Z,19.38
2018-06-01T03:07:06.490Z,19.44
2018-06-01T03:08:06.443Z,19.38
2018-06-01T03:09:06.419Z,19.44
2018-06-01T03:10:06.156Z,19.44
2018-06-01T03:11:06.202Z,19.44
2018-06-01T03:12:05.784Z,19.44
2018-06-01T03:13:05.713Z,19.44
2018-06-01T03:14:05.542Z,19.44
2018-06-01T03:15:06.616Z,19.44
2018-06-01T03:16:05.722Z,19.44
2018-06-01T03:17:06.356Z,19.44
2018-06-01T03:18:05.858Z,19.44
2018-06-01T03:19:06.907Z,19.44
2018-06-01T03:20:06.467Z,19.44
2018-06-01T03:21:06.200Z,19.44
2018-06-01T03:22:05.677Z,19.44
2018-06-01T03:23:06.129Z,19.44
2018-06-01T03:24:06.118Z,19.44
2018-06-01T03:25:16.205Z,19.44
2018-06-01T03:26:05.987Z,19.44
2018-06-01T03:27:05.633Z,19.44
2018-06-01T03:28:06.060Z,19.44
2018-06-01T03:29:05.768Z,19.44
2018-06-01T03:30:06.341Z,19.50
2018-06-01T03:31:06.450Z,19.44
2018-06-01T03:32:06.343Z,19.50
2018-06-01T03:33:06.192Z,19.50
2018-06-01T03:34:11.179Z,19.50
2018-06-01T03:35:05.810Z,19.56
2018-06-01T03:36:05.913Z,19.56
2018-06-01T03:37:11.535Z,19.56
2018-06-01T03:38:06.183Z,19.56
2018-06-01T03:39:05.773Z,19.62
2018-06-01T03:40:06.423Z,19.62
2018-06-01T03:41:06.116Z,19.62
2018-06-01T03:42:05.708Z,19.62
2018-06-01T03:43:05.711Z,19.62
2018-06-01T03:44:06.639Z,19.69
2018-06-01T03:45:06.408Z,19.69
2018-06-01T03:46:06.688Z,19.69
2018-06-01T03:47:06.389Z,19.69
2018-06-01T03:48:06.272Z,19.75
2018-06-01T03:49:06.349Z,19.75
2018-06-01T03:50:06.429Z,19.75
2018-06-01T03:51:06.383Z,19.75
2018-06-01T03:52:06.464Z,19.75
2018-06-01T03:53:06.371Z,19.75
2018-06-01T03:54:06.365Z,19.75
2018-06-01T03:55:06.262Z,19.75
2018-06-01T03:56:05.944Z,19.75
2018-06-01T03:57:05.983Z,19.75
2018-06-01T03:58:06.274Z,19.81
2018-06-01T03:59:06.115Z,19.81
2018-06-01T04:00:06.436Z,19.81
2018-06-01T04:01:11.115Z,19.81
2018-06-01T04:02:06.443Z,19.81
2018-06-01T04:03:06.012Z,19.81
2018-06-01T04:04:05.966Z,19.81
2018-06-01T04:05:06.059Z,19.81
2018-06-01T04:06:06.990Z,19.81
2018-06-01T04:07:05.856Z,19.88
2018-06-01T04:08:06.226Z,19.88
2018-06-01T04:09:06.046Z,19.88
2018-06-01T04:10:06.411Z,19.88
2018-06-01T04:11:06.166Z,19.88
2018-06-01T04:12:11.298Z,19.88
2018-06-01T04:13:05.778Z,19.88
2018-06-01T04:14:05.704Z,19.88
2018-06-01T04:15:06.254Z,19.88
2018-06-01T04:16:05.861Z,19.88
2018-06-01T04:17:06.182Z,19.88
2018-06-01T04:18:10.971Z,19.88
2018-06-01T04:19:05.638Z,19.88
2018-06-01T04:20:05.698Z,19.88
2018-06-01T04:21:06.762Z,19.88
2018-06-01T04:22:06.511Z,19.88
2018-06-01T04:23:06.102Z,19.94
2018-06-01T04:24:10.556Z,19.88
2018-06-01T04:25:06.736Z,19.88
2018-06-01T04:26:06.502Z,19.88
2018-06-01T04:27:06.596Z,19.88
2018-06-01T04:28:05.617Z,19.88
2018-06-01T04:29:06.272Z,19.94
2018-06-01T04:30:07.649Z,19.94
2018-06-01T04:31:11.372Z,19.88
2018-06-01T04:32:06.587Z,19.88
2018-06-01T04:33:06.256Z,19.88
2018-06-01T04:34:06.898Z,19.88
2018-06-01T04:35:06.419Z,19.88
2018-06-01T04:36:06.125Z,19.88
2018-06-01T04:37:06.308Z,19.88
2018-06-01T04:38:06.306Z,19.81
2018-06-01T04:39:06.350Z,19.81
2018-06-01T04:40:05.882Z,19.88
2018-06-01T04:41:06.521Z,19.88
2018-06-01T04:42:06.137Z,19.88
2018-06-01T04:43:06.058Z,19.88
2018-06-01T04:44:05.876Z,19.88
2018-06-01T04:45:06.409Z,19.88
2018-06-01T04:46:06.091Z,19.88
2018-06-01T04:47:06.519Z,19.88
2018-06-01T04:48:05.546Z,19.88
2018-06-01T04:49:05.728Z,19.88
2018-06-01T04:50:05.792Z,19.88
2018-06-01T04:51:05.943Z,19.88
2018-06-01T04:52:05.802Z,19.88
2018-06-01T04:53:06.587Z,19.88
2018-06-01T04:54:06.253Z,19.88
2018-06-01T04:55:05.746Z,19.88
2018-06-01T04:56:06.330Z,19.88
2018-06-01T04:57:06.344Z,19.94
2018-06-01T04:58:06.646Z,19.88
2018-06-01T04:59:05.954Z,19.94
2018-06-01T05:00:05.903Z,19.88
2018-06-01T05:01:05.861Z,19.94
2018-06-01T05:02:05.855Z,19.88
2018-06-01T05:03:06.177Z,19.88
2018-06-01T05:04:06.441Z,19.88
2018-06-01T05:05:06.135Z,19.88
2018-06-01T05:06:05.942Z,19.88
2018-06-01T05:07:06.423Z,19.88
2018-06-01T05:08:06.516Z,19.88
2018-06-01T05:09:05.700Z,19.88
2018-06-01T05:10:06.784Z,19.88
2018-06-01T05:11:06.050Z,19.88
2018-06-01T05:12:06.165Z,19.88
2018-06-01T05:13:06.153Z,19.88
2018-06-01T05:14:06.212Z,19.88
2018-06-01T05:15:05.911Z,19.88
2018-06-01T05:16:06.022Z,19.88
2018-06-01T05:17:06.508Z,19.81
2018-06-01T05:18:05.567Z,19.81
2018-06-01T05:19:05.959Z,19.81
2018-06-01T05:20:10.653Z,19.81
2018-06-01T05:21:06.174Z,19.81
2018-06-01T05:22:06.336Z,19.81
2018-06-01T05:23:06.367Z,19.81
2018-06-01T05:24:05.951Z,19.81
2018-06-01T05:25:06.628Z,19.81
2018-06-01T05:26:11.318Z,19.81
2018-06-01T05:27:06.565Z,19.81
2018-06-01T05:28:05.862Z,19.88
2018-06-01T05:29:05.822Z,19.81
2018-06-01T05:30:06.366Z,19.88
2018-06-01T05:31:06.260Z,19.88
2018-06-01T05:32:06.100Z,19.88
2018-06-01T05:33:05.916Z,19.88
2018-06-01T05:34:06.184Z,19.88
2018-06-01T05:35:05.638Z,19.88
2018-06-01T05:36:05.612Z,19.88
2018-06-01T05:37:05.773Z,19.88
2018-06-01T05:38:05.726Z,19.88
2018-06-01T05:39:06.121Z,19.88
2018-06-01T05:40:05.754Z,19.88
2018-06-01T05:41:06.131Z,19.88
2018-06-01T05:42:05.834Z,19.88
2018-06-01T05:43:11.127Z,19.88
2018-06-01T05:44:05.792Z,19.88
2018-06-01T05:45:05.728Z,19.94
2018-06-01T05:46:05.621Z,19.94
2018-06-01T05:47:06.268Z,19.88
2018-06-01T05:48:06.342Z,19.88
2018-06-01T05:49:06.306Z,19.88
2018-06-01T05:50:06.266Z,19.88
2018-06-01T05:51:06.098Z,19.88
2018-06-01T05:52:05.702Z,19.88
2018-06-01T05:53:06.444Z,19.88
2018-06-01T05:54:06.015Z,19.88
2018-06-01T05:55:06.019Z,19.88
2018-06-01T05:56:05.714Z,19.88
2018-06-01T05:57:05.784Z,19.88
2018-06-01T05:58:06.274Z,19.94
2018-06-01T05:59:06.293Z,19.94
2018-06-01T06:00:05.833Z,19.94
2018-06-01T06:01:06.595Z,19.94
2018-06-01T06:02:06.421Z,19.94
2018-06-01T06:03:06.506Z,19.94
2018-06-01T06:04:06.569Z,19.81
2018-06-01T06:05:06.120Z,19.75
2018-06-01T06:06:05.796Z,19.81
2018-06-01T06:07:05.859Z,19.75
2018-06-01T06:08:05.837Z,19.75
2018-06-01T06:09:06.098Z,19.75
2018-06-01T06:10:05.918Z,19.75
2018-06-01T06:11:06.519Z,19.75
2018-06-01T06:12:05.631Z,19.81
2018-06-01T06:13:05.907Z,19.75
2018-06-01T06:14:06.895Z,19.75
2018-06-01T06:15:06.265Z,19.75
2018-06-01T06:16:06.302Z,19.75
2018-06-01T06:17:06.629Z,19.75
2018-06-01T06:18:06.021Z,19.81
2018-06-01T06:19:06.413Z,19.75
2018-06-01T06:20:06.521Z,19.75
2018-06-01T06:21:05.874Z,19.81
2018-06-01T06:22:05.970Z,19.81
2018-06-01T06:23:06.868Z,19.81
2018-06-01T06:24:06.729Z,19.81
2018-06-01T06:25:06.560Z,19.81
2018-06-01T06:26:06.272Z,19.81
2018-06-01T06:27:05.978Z,19.81
2018-06-01T06:28:06.421Z,19.81
2018-06-01T06:29:09.455Z,19.81
2018-06-01T06:30:05.714Z,19.81
2018-06-01T06:31:05.712Z,19.75
2018-06-01T06:32:06.575Z,19.75
2018-06-01T06:33:05.930Z,19.81
2018-06-01T06:34:06.338Z,19.75
2018-06-01T06:35:07.248Z,19.75
2018-06-01T06:36:06.223Z,19.75
2018-06-01T06:37:06.356Z,19.75
2018-06-01T06:38:06.571Z,19.81
2018-06-01T06:39:06.442Z,19.75
2018-06-01T06:40:05.941Z,19.75
2018-06-01T06:41:05.813Z,19.75
2018-06-01T06:42:06.004Z,19.75
2018-06-01T06:43:06.005Z,19.75
2018-06-01T06:44:05.909Z,19.75
2018-06-01T06:45:10.899Z,19.75
2018-06-01T06:46:06.497Z,19.81
2018-06-01T06:47:06.366Z,19.81
2018-06-01T06:48:06.249Z,19.81
2018-06-01T06:49:06.431Z,19.81
2018-06-01T06:50:05.863Z,19.81
2018-06-01T06:51:06.104Z,19.81
2018-06-01T06:52:06.124Z,19.81
2018-06-01T06:53:05.785Z,19.81
2018-06-01T06:54:10.843Z,19.88
2018-06-01T06:55:05.541Z,19.81
2018-06-01T06:56:06.563Z,19.81
2018-06-01T06:57:06.505Z,19.81
2018-06-01T06:58:06.253Z,19.81
2018-06-01T06:59:06.232Z,19.81
2018-06-01T07:00:06.130Z,19.81
2018-06-01T07:01:05.714Z,19.81
2018-06-01T07:02:05.675Z,19.88
2018-06-01T07:03:10.778Z,19.88
2018-06-01T07:04:06.486Z,19.88
2018-06-01T07:05:06.088Z,19.88
2018-06-01T07:06:06.631Z,19.94
2018-06-01T07:07:06.414Z,19.94
2018-06-01T07:08:06.596Z,20.00
2018-06-01T07:09:06.257Z,20.00
2018-06-01T07:10:06.712Z,20.06
2018-06-01T07:11:06.515Z,20.12
2018-06-01T07:12:06.358Z,20.12
2018-06-01T07:13:06.031Z,20.19
2018-06-01T07:14:06.088Z,20.25
2018-06-01T07:15:11.107Z,20.25
2018-06-01T07:16:05.864Z,20.25
2018-06-01T07:17:05.957Z,20.31
2018-06-01T07:18:05.450Z,20.38
2018-06-01T07:19:05.621Z,20.38
2018-06-01T07:20:06.791Z,20.38
2018-06-01T07:21:05.954Z,20.38
2018-06-01T07:22:05.712Z,20.38
2018-06-01T07:23:06.413Z,20.44
2018-06-01T07:24:06.412Z,20.44
2018-06-01T07:25:06.568Z,20.50
2018-06-01T07:26:05.661Z,20.56
2018-06-01T07:27:06.508Z,20.56
2018-06-01T07:28:06.744Z,20.62
2018-06-01T07:29:06.104Z,20.62
2018-06-01T07:30:10.732Z,20.69
2018-06-01T07:31:05.862Z,20.81
2018-06-01T07:32:06.018Z,20.88
2018-06-01T07:33:11.035Z,20.94
2018-06-01T07:34:05.814Z,21.00
2018-06-01T07:35:06.351Z,21.12
2018-06-01T07:36:06.179Z,21.12
2018-06-01T07:37:06.185Z,21.19
2018-06-01T07:38:06.251Z,21.25
2018-06-01T07:39:06.190Z,21.31
2018-06-01T07:40:06.028Z,21.38
2018-06-01T07:41:06.328Z,21.44
2018-06-01T07:42:06.004Z,21.50
2018-06-01T07:43:05.577Z,21.50
2018-06-01T07:44:06.185Z,21.56
2018-06-01T07:45:05.780Z,21.62
2018-06-01T07:46:06.004Z,21.62
2018-06-01T07:47:06.694Z,21.69
2018-06-01T07:48:05.885Z,21.81
2018-06-01T07:49:05.776Z,21.88
2018-06-01T07:50:05.702Z,21.94
2018-06-01T07:51:06.392Z,22.00
2018-06-01T07:52:06.450Z,22.06
2018-06-01T07:53:06.671Z,22.12
2018-06-01T07:54:06.019Z,22.19
2018-06-01T07:55:05.785Z,22.19
2018-06-01T07:56:06.680Z,22.25
2018-06-01T07:57:06.171Z,22.31
2018-06-01T07:58:05.609Z,22.38
2018-06-01T07:59:06.731Z,22.50
2018-06-01T08:00:06.025Z,22.56
2018-06-01T08:01:06.927Z,22.62
2018-06-01T08:02:05.992Z,22.69
2018-06-01T08:03:11.252Z,23.06
2018-06-01T08:04:06.520Z,23.19
2018-06-01T08:05:11.541Z,23.25
2018-06-01T08:06:06.257Z,23.31
2018-06-01T08:07:06.370Z,23.38
2018-06-01T08:08:06.418Z,23.44
2018-06-01T08:09:11.019Z,23.50
2018-06-01T08:10:05.684Z,23.56
2018-06-01T08:11:05.778Z,23.62
2018-06-01T08:12:06.136Z,23.75
2018-06-01T08:13:06.348Z,23.81
2018-06-01T08:14:05.562Z,23.88
2018-06-01T08:15:06.821Z,24.00
2018-06-01T08:16:06.026Z,24.06
2018-06-01T08:17:06.249Z,24.12
2018-06-01T08:18:06.429Z,24.19
2018-06-01T08:19:06.418Z,24.31
2018-06-01T08:20:06.186Z,24.38
2018-06-01T08:21:06.056Z,24.44
2018-06-01T08:22:05.954Z,24.50
2018-06-01T08:23:05.547Z,24.56
2018-06-01T08:24:06.006Z,24.62
2018-06-01T08:25:06.178Z,24.69
2018-06-01T08:26:06.272Z,24.75
2018-06-01T08:27:06.226Z,24.81
2018-06-01T08:28:06.193Z,24.88
2018-06-01T08:29:11.131Z,24.94
2018-06-01T08:30:05.853Z,25.00
2018-06-01T08:31:06.420Z,25.06
2018-06-01T08:32:06.811Z,25.12
2018-06-01T08:33:06.030Z,25.19
2018-06-01T08:34:06.088Z,25.19
2018-06-01T08:35:06.104Z,25.25
2018-06-01T08:36:06.276Z,25.25
2018-06-01T08:37:10.948Z,25.31
2018-06-01T08:38:05.619Z,25.31
2018-06-01T08:39:06.274Z,25.38
2018-06-01T08:40:06.449Z,25.44
2018-06-01T08:41:06.226Z,25.44
2018-06-01T08:42:05.641Z,25.44
2018-06-01T08:43:10.642Z,25.44
2018-06-01T08:44:06.849Z,25.50
2018-06-01T08:45:06.009Z,25.50
2018-06-01T08:46:06.109Z,25.50
2018-06-01T08:47:06.288Z,25.50
2018-06-01T08:48:06.570Z,25.56
2018-06-01T08:49:05.591Z,25.56
2018-06-01T08:50:06.485Z,25.56
2018-06-01T08:51:06.516Z,25.56
2018-06-01T08:52:06.199Z,25.56
2018-06-01T08:53:06.853Z,25.56
2018-06-01T08:54:06.051Z,25.56
2018-06-01T08:55:05.888Z,25.56
2018-06-01T08:56:06.179Z,25.56
2018-06-01T08:57:06.427Z,25.56
2018-06-01T08:58:06.618Z,25.56
2018-06-01T08:59:11.445Z,25.56
2018-06-01T09:00:05.771Z,25.56
2018-06-01T09:01:06.383Z,25.56
2018-06-01T09:02:06.099Z,25.56
2018-06-01T09:03:06.573Z,25.50
2018-06-01T09:04:05.761Z,25.44
2018-06-01T09:05:06.417Z,25.44
2018-06-01T09:06:06.504Z,25.38
2018-06-01T09:07:06.270Z,25.31
2018-06-01T09:08:06.174Z,25.31
2018-06-01T09:09:05.878Z,25.31
2018-06-01T09:10:06.068Z,25.25
2018-06-01T09:11:06.017Z,25.25
2018-06-01T09:12:06.172Z,25.19
2018-06-01T09:13:06.140Z,25.12
2018-06-01T09:14:06.347Z,25.12
2018-06-01T09:15:06.443Z,25.06
2018-06-01T09:16:06.007Z,25.00
2018-06-01T09:17:05.964Z,25.00
2018-06-01T09:18:06.393Z,25.00
2018-06-01T09:19:05.723Z,25.00
2018-06-01T09:20:07.577Z,24.94
2018-06-01T09:21:06.352Z,25.00
2018-06-01T09:22:06.432Z,25.00
2018-06-01T09:23:05.490Z,25.00
2018-06-01T09:24:07.483Z,24.94
2018-06-01T09:25:06.509Z,25.00
2018-06-01T09:26:06.346Z,25.00
2018-06-01T09:27:06.404Z,25.00
2018-06-01T09:28:06.683Z,25.06
2018-06-01T09:29:05.882Z,25.12
2018-06-01T09:30:05.795Z,25.19
2018-06-01T09:31:06.253Z,25.19
2018-06-01T09:32:06.100Z,25.25
2018-06-01T09:33:05.715Z,25.31
2018-06-01T09:34:05.792Z,25.31
2018-06-01T09:35:05.816Z,25.38
2018-06-01T09:36:05.628Z,25.44
2018-06-01T09:37:06.041Z,25.44
2018-06-01T09:38:05.972Z,25.44
2018-06-01T09:39:05.981Z,25.50
2018-06-01T09:40:06.415Z,25.56
2018-06-01T09:41:05.537Z,25.56
2018-06-01T09:42:05.696Z,25.56
2018-06-01T09:43:06.506Z,25.62
2018-06-01T09:44:06.584Z,25.88
2018-06-01T09:45:05.646Z,26.00
2018-06-01T09:46:06.503Z,26.12
2018-06-01T09:47:06.419Z,26.31
2018-06-01T09:48:06.106Z,26.44
2018-06-01T09:49:06.123Z,26.50
2018-06-01T09:50:06.027Z,26.56
2018-06-01T09:51:06.039Z,26.50
2018-06-01T09:52:06.140Z,26.50
2018-06-01T09:53:06.105Z,26.56
2018-06-01T09:54:06.438Z,26.62
2018-06-01T09:55:06.415Z,26.69
2018-06-01T09:56:05.794Z,26.88
2018-06-01T09:57:05.973Z,26.94
2018-06-01T09:58:05.775Z,27.06
2018-06-01T09:59:10.868Z,26.94
2018-06-01T10:00:06.543Z,26.88
2018-06-01T10:01:07.320Z,26.81
2018-06-01T10:02:11.183Z,26.75
2018-06-01T10:03:05.878Z,26.75
2018-06-01T10:04:05.627Z,26.69
2018-06-01T10:05:06.116Z,26.81
2018-06-01T10:06:06.266Z,26.81
2018-06-01T10:07:10.707Z,26.75
2018-06-01T10:08:05.462Z,26.75
2018-06-01T10:09:06.327Z,26.69
2018-06-01T10:10:06.033Z,26.69
2018-06-01T10:11:06.368Z,26.69
2018-06-01T10:12:05.945Z,26.62
2018-06-01T10:13:05.784Z,26.62
2018-06-01T10:14:05.543Z,26.62
2018-06-01T10:15:11.579Z,26.56
2018-06-01T10:16:06.284Z,26.56
2018-06-01T10:17:06.427Z,26.56
2018-06-01T10:18:06.504Z,26.56
2018-06-01T10:19:06.119Z,26.50
2018-06-01T10:20:06.370Z,26.50
2018-06-01T10:21:05.942Z,26.50
2018-06-01T10:22:06.349Z,26.50
2018-06-01T10:23:06.044Z,26.50
2018-06-01T10:24:05.706Z,26.50
2018-06-01T10:25:05.689Z,26.44
2018-06-01T10:26:06.290Z,26.50
2018-06-01T10:27:06.031Z,26.50
2018-06-01T10:28:06.192Z,26.50
2018-06-01T10:29:05.645Z,26.50
2018-06-01T10:30:05.735Z,26.50
2018-06-01T10:31:05.711Z,26.50
2018-06-01T10:32:05.825Z,26.50
2018-06-01T10:33:06.778Z,26.50
2018-06-01T10:34:06.268Z,26.50
2018-06-01T10:35:05.965Z,26.50
2018-06-01T10:36:10.905Z,26.44
2018-06-01T10:37:05.620Z,26.44
2018-06-01T10:38:11.127Z,26.44
2018-06-01T10:39:11.218Z,26.44
2018-06-01T10:40:05.861Z,26.50
2018-06-01T10:41:06.394Z,26.44
2018-06-01T10:42:06.427Z,26.44
2018-06-01T10:43:06.191Z,26.44
2018-06-01T10:44:06.071Z,26.44
2018-06-01T10:45:06.249Z,26.44
2018-06-01T10:46:06.038Z,26.44
2018-06-01T10:47:05.702Z,26.44
2018-06-01T10:48:06.276Z,26.50
2018-06-01T10:49:06.359Z,26.50
2018-06-01T10:50:06.254Z,26.50
2018-06-01T10:51:05.901Z,26.56
2018-06-01T10:52:06.107Z,26.56
2018-06-01T10:53:10.746Z,26.56
2018-06-01T10:54:06.269Z,26.56
2018-06-01T10:55:06.311Z,26.56
2018-06-01T10:56:06.188Z,26.56
2018-06-01T10:57:06.525Z,26.62
2018-06-01T10:58:05.792Z,26.62
2018-06-01T10:59:05.537Z,26.62
2018-06-01T11:00:05.833Z,26.69
2018-06-01T11:01:05.701Z,26.69
2018-06-01T11:02:05.691Z,26.75
2018-06-01T11:03:06.435Z,26.75
2018-06-01T11:04:06.425Z,26.75
2018-06-01T11:05:06.426Z,26.81
2018-06-01T11:06:05.620Z,26.81
2018-06-01T11:07:05.800Z,26.81
2018-06-01T11:08:05.781Z,26.88
2018-06-01T11:09:05.864Z,26.88
2018-06-01T11:10:05.774Z,26.94
2018-06-01T11:11:05.695Z,26.88
2018-06-01T11:12:06.108Z,26.88
2018-06-01T11:13:06.086Z,26.94
2018-06-01T11:14:05.839Z,26.94
2018-06-01T11:15:06.260Z,27.00
2018-06-01T11:16:06.341Z,27.00
2018-06-01T11:17:11.267Z,27.00
2018-06-01T11:18:05.860Z,27.06
2018-06-01T11:19:05.780Z,27.06
2018-06-01T11:20:05.775Z,27.06
2018-06-01T11:21:10.741Z,27.06
2018-06-01T11:22:06.420Z,27.06
2018-06-01T11:23:06.513Z,27.06
2018-06-01T11:24:06.564Z,27.06
2018-06-01T11:25:06.581Z,27.06
2018-06-01T11:26:06.606Z,27.12
2018-06-01T11:27:05.793Z,27.12
2018-06-01T11:28:06.077Z,27.12
2018-06-01T11:29:05.951Z,27.12
2018-06-01T11:30:10.709Z,27.19
2018-06-01T11:31:06.376Z,27.19
2018-06-01T11:32:06.122Z,27.25
2018-06-01T11:33:06.191Z,27.25
2018-06-01T11:34:06.011Z,27.25
2018-06-01T11:35:05.699Z,27.31
2018-06-01T11:36:06.518Z,27.31
2018-06-01T11:37:06.696Z,27.31
2018-06-01T11:38:06.272Z,27.38
2018-06-01T11:39:06.554Z,27.38
2018-06-01T11:40:06.673Z,27.38
2018-06-01T11:41:06.607Z,27.38
2018-06-01T11:42:06.194Z,27.44
2018-06-01T11:43:06.325Z,27.44
2018-06-01T11:44:05.880Z,27.50
2018-06-01T11:45:06.498Z,27.50
2018-06-01T11:46:06.099Z,27.50
2018-06-01T11:47:05.889Z,27.50
2018-06-01T11:48:06.200Z,27.50
2018-06-01T11:49:06.138Z,27.50
2018-06-01T11:50:06.390Z,27.56
2018-06-01T11:51:06.373Z,27.56
2018-06-01T11:52:11.110Z,27.56
2018-06-01T11:53:06.085Z,27.56
2018-06-01T11:54:05.783Z,27.62
2018-06-01T11:55:11.431Z,27.56
2018-06-01T11:56:10.564Z,27.56
2018-06-01T11:57:06.503Z,27.62
2018-06-01T11:58:06.203Z,27.62
2018-06-01T11:59:06.321Z,27.62
2018-06-01T12:00:06.304Z,27.62
2018-06-01T12:01:05.574Z,27.62
2018-06-01T12:02:05.989Z,27.69
2018-06-01T12:03:05.723Z,27.69
2018-06-01T12:04:06.796Z,27.75
2018-06-01T12:05:06.047Z,27.75
2018-06-01T12:06:06.477Z,27.81
2018-06-01T12:07:06.503Z,27.88
2018-06-01T12:08:06.245Z,27.88
2018-06-01T12:09:06.093Z,27.88
2018-06-01T12:10:05.537Z,27.94
2018-06-01T12:11:05.739Z,27.94
2018-06-01T12:12:05.636Z,27.94
2018-06-01T12:13:05.966Z,28.00
2018-06-01T12:14:06.501Z,28.00
2018-06-01T12:15:06.971Z,28.00
2018-06-01T12:16:10.697Z,28.00
2018-06-01T12:17:06.341Z,28.00
2018-06-01T12:18:06.185Z,28.00
2018-06-01T12:19:05.887Z,28.00
2018-06-01T12:20:05.479Z,28.00
2018-06-01T12:21:05.775Z,28.00
2018-06-01T12:22:05.819Z,28.06
2018-06-01T12:23:06.555Z,28.06
2018-06-01T12:24:05.973Z,28.06
2018-06-01T12:25:06.223Z,28.06
2018-06-01T12:26:07.011Z,28.06
2018-06-01T12:27:06.535Z,28.06
2018-06-01T12:28:05.611Z,28.12
2018-06-01T12:29:06.281Z,28.12
2018-06-01T12:30:11.216Z,28.12
2018-06-01T12:31:05.787Z,28.19
2018-06-01T12:32:05.553Z,28.19
2018-06-01T12:33:06.407Z,28.19
2018-06-01T12:34:07.064Z,28.12
2018-06-01T12:35:05.618Z,28.12
2018-06-01T12:36:06.168Z,28.12
2018-06-01T12:37:06.124Z,28.12
2018-06-01T12:38:05.506Z,28.12
2018-06-01T12:39:07.257Z,28.12
2018-06-01T12:40:06.433Z,28.12
2018-06-01T12:41:05.935Z,28.19
2018-06-01T12:42:05.880Z,28.25
2018-06-01T12:43:11.600Z,28.25
2018-06-01T12:44:06.350Z,28.25
2018-06-01T12:45:10.899Z,28.25
2018-06-01T12:46:05.623Z,28.31
2018-06-01T12:47:06.508Z,28.31
2018-06-01T12:48:11.192Z,28.31
2018-06-01T12:49:05.734Z,28.31
2018-06-01T12:50:06.425Z,28.38
2018-06-01T12:51:07.489Z,28.31
2018-06-01T12:52:06.410Z,28.31